Barao de Melgaco, Brazil
Current Conditions -  °F | °C
As of 6:00 AM on Monday 24 Nov 2014 (Local Time) from SBCY Reporting Station
Broken Clouds Broken Clouds  
Wind Chill: 75°   Ceiling: 10000
Heat Index: 75°   Visibility: 6mi
Dew Point: 70°   Wind: 8mph
Humidity: 83%   Direction: 20°NNE
Pressure: 29.83"   Gusts: NA
Location:  16.19°S, 55.97°W
Report Text: SBCY 240900Z 02007KT 9999 FEW020 BKN100 24/21 Q1010
Loading
Personal Weather Stations






























Interactive Weather Map New forecast layout! Learn more

10-Day Weather Forecast

Advertisements
Track Severe Weather on mobile